createdAt,value
2017-09-05T00:00:23.975Z,13.40
2017-09-05T00:02:56.192Z,13.30
2017-09-05T00:05:28.659Z,13.20
2017-09-05T00:08:01.717Z,13.20
2017-09-05T00:10:34.202Z,13.20
2017-09-05T00:16:11.213Z,13.10
2017-09-05T00:18:43.498Z,13.20
2017-09-05T00:21:17.912Z,13.10
2017-09-05T00:23:51.012Z,13.20
2017-09-05T00:26:23.622Z,13.10
2017-09-05T00:28:55.914Z,13.00
2017-09-05T00:31:28.126Z,13.00
2017-09-05T00:34:00.640Z,13.10
2017-09-05T00:36:33.172Z,13.00
2017-09-05T00:39:05.595Z,13.00
2017-09-05T00:41:37.986Z,12.90
2017-09-05T00:44:10.242Z,12.90
2017-09-05T00:46:42.703Z,12.90
2017-09-05T00:49:15.043Z,12.90
2017-09-05T00:51:47.511Z,12.90
2017-09-05T00:54:19.758Z,12.80
2017-09-05T00:56:52.074Z,12.80
2017-09-05T00:59:24.355Z,12.70
2017-09-05T01:01:56.742Z,12.60
2017-09-05T01:04:29.009Z,12.60
2017-09-05T01:07:01.357Z,12.70
2017-09-05T01:09:34.352Z,12.70
2017-09-05T01:12:07.472Z,12.70
2017-09-05T01:14:39.697Z,12.70
2017-09-05T01:17:12.161Z,12.70
2017-09-05T01:19:44.405Z,12.60
2017-09-05T01:22:16.781Z,12.60
2017-09-05T01:24:49.068Z,12.60
2017-09-05T01:27:21.401Z,12.50
2017-09-05T01:29:53.794Z,12.50
2017-09-05T01:32:26.916Z,12.50
2017-09-05T01:35:00.226Z,12.50
2017-09-05T01:37:32.812Z,12.40
2017-09-05T01:40:09.079Z,12.40
2017-09-05T01:42:41.412Z,12.40
2017-09-05T01:45:13.700Z,12.30
2017-09-05T01:47:46.465Z,12.30
2017-09-05T01:50:18.857Z,12.30
2017-09-05T01:52:51.417Z,12.40
2017-09-05T01:55:23.759Z,12.40
2017-09-05T01:57:57.407Z,12.40
2017-09-05T02:00:29.670Z,12.30
2017-09-05T02:03:02.243Z,12.40
2017-09-05T02:05:34.433Z,12.40
2017-09-05T02:08:06.872Z,12.40
2017-09-05T02:10:39.117Z,12.50
2017-09-05T02:13:11.823Z,12.40
2017-09-05T02:15:44.150Z,12.40
2017-09-05T02:18:16.798Z,12.40
2017-09-05T02:20:49.128Z,12.40
2017-09-05T02:23:21.634Z,12.30
2017-09-05T02:25:53.948Z,12.30
2017-09-05T02:28:26.209Z,12.20
2017-09-05T02:30:58.473Z,12.20
2017-09-05T02:33:31.003Z,12.20
2017-09-05T02:36:03.180Z,12.20
2017-09-05T02:38:35.657Z,12.10
2017-09-05T02:41:08.098Z,12.00
2017-09-05T02:43:40.717Z,12.00
2017-09-05T02:46:13.002Z,12.00
2017-09-05T02:48:45.361Z,12.20
2017-09-05T02:51:17.615Z,12.20
2017-09-05T02:53:49.948Z,12.30
2017-09-05T02:56:22.146Z,12.30
2017-09-05T02:58:54.545Z,12.30
2017-09-05T03:01:26.900Z,12.40
2017-09-05T03:03:59.328Z,12.40
2017-09-05T03:06:31.700Z,12.30
2017-09-05T03:09:03.969Z,12.30
2017-09-05T03:11:36.217Z,12.20
2017-09-05T03:14:08.490Z,12.30
2017-09-05T03:16:40.923Z,12.30
2017-09-05T03:19:13.383Z,12.30
2017-09-05T03:21:45.787Z,12.30
2017-09-05T03:24:18.189Z,12.20
2017-09-05T03:26:50.581Z,12.10
2017-09-05T03:29:22.770Z,12.10
2017-09-05T03:31:55.213Z,12.10
2017-09-05T03:34:27.488Z,12.10
2017-09-05T03:36:59.888Z,12.10
2017-09-05T03:39:32.149Z,12.20
2017-09-05T03:42:04.318Z,12.10
2017-09-05T03:44:36.741Z,12.10
2017-09-05T03:47:09.098Z,12.10
2017-09-05T03:49:41.570Z,12.20
2017-09-05T03:52:13.962Z,12.00
2017-09-05T03:54:46.293Z,12.00
2017-09-05T03:57:18.656Z,12.10
2017-09-05T03:59:51.079Z,12.00
2017-09-05T04:02:23.389Z,12.00
2017-09-05T04:04:55.804Z,11.90
2017-09-05T04:07:28.111Z,11.90
2017-09-05T04:10:00.666Z,11.80
2017-09-05T04:12:33.042Z,11.80
2017-09-05T04:15:05.514Z,11.70
2017-09-05T04:17:37.700Z,11.60
2017-09-05T04:20:09.961Z,11.70
2017-09-05T04:22:42.323Z,11.80
2017-09-05T04:25:14.478Z,11.80
2017-09-05T04:27:46.793Z,11.90
2017-09-05T04:30:19.573Z,11.90
2017-09-05T04:32:51.937Z,11.90
2017-09-05T04:35:24.308Z,12.00
2017-09-05T04:37:56.669Z,11.90
2017-09-05T04:40:29.258Z,11.90
2017-09-05T04:43:01.631Z,11.90
2017-09-05T04:45:33.778Z,11.90
2017-09-05T04:48:06.233Z,12.00
2017-09-05T04:50:38.612Z,12.20
2017-09-05T04:53:10.998Z,12.10
2017-09-05T04:55:43.764Z,12.20
2017-09-05T04:58:16.090Z,12.20
2017-09-05T05:00:48.693Z,12.30
2017-09-05T05:03:20.979Z,12.30
2017-09-05T05:05:53.405Z,12.30
2017-09-05T05:08:25.574Z,12.40
2017-09-05T05:10:57.984Z,12.50
2017-09-05T05:13:30.288Z,12.60
2017-09-05T05:16:02.865Z,12.70
2017-09-05T05:18:35.320Z,12.90
2017-09-05T05:21:07.505Z,12.90
2017-09-05T05:23:39.792Z,13.10
2017-09-05T05:26:12.189Z,13.10
2017-09-05T05:28:44.425Z,13.20
2017-09-05T05:31:16.772Z,13.30
2017-09-05T05:33:49.061Z,13.50
2017-09-05T05:36:21.798Z,13.50
2017-09-05T05:38:54.193Z,13.60
2017-09-05T05:41:26.407Z,13.70
2017-09-05T05:43:58.589Z,13.70
2017-09-05T05:46:30.917Z,13.90
2017-09-05T05:49:03.331Z,14.10
2017-09-05T05:51:35.510Z,14.20
2017-09-05T05:54:07.750Z,14.30
2017-09-05T05:56:39.967Z,14.60
2017-09-05T05:59:12.158Z,14.60
2017-09-05T06:01:44.546Z,14.70
2017-09-05T06:04:16.819Z,14.90
2017-09-05T06:06:49.059Z,15.20
2017-09-05T06:09:21.258Z,15.40
2017-09-05T06:11:53.866Z,15.80
2017-09-05T06:14:26.093Z,16.30
2017-09-05T06:16:58.336Z,17.00
2017-09-05T06:19:30.718Z,17.30
2017-09-05T06:22:03.149Z,17.60
2017-09-05T06:24:35.312Z,17.80
2017-09-05T06:27:07.619Z,18.00
2017-09-05T06:29:39.977Z,18.50
2017-09-05T06:32:12.290Z,18.70
2017-09-05T06:34:44.497Z,19.40
2017-09-05T06:37:16.906Z,19.70
2017-09-05T06:39:49.243Z,19.60
2017-09-05T06:42:21.556Z,19.90
2017-09-05T06:44:53.824Z,20.40
2017-09-05T06:47:25.991Z,20.40
2017-09-05T06:49:58.174Z,21.30
2017-09-05T06:52:30.523Z,21.40
2017-09-05T06:55:02.993Z,21.40
2017-09-05T06:57:35.249Z,21.90
2017-09-05T07:00:07.407Z,22.20
2017-09-05T07:02:39.956Z,22.30
2017-09-05T07:05:12.218Z,22.10
2017-09-05T07:07:44.558Z,22.60
2017-09-05T07:10:16.802Z,23.20
2017-09-05T07:12:42.994Z,23.50
2017-09-05T07:15:09.259Z,23.50
2017-09-05T07:17:35.435Z,23.30
2017-09-05T07:20:01.566Z,22.80
2017-09-05T07:22:27.922Z,22.80
2017-09-05T07:24:54.206Z,23.00
2017-09-05T07:27:27.418Z,23.60
2017-09-05T07:29:53.567Z,23.80
2017-09-05T07:32:19.836Z,24.10
2017-09-05T07:34:46.010Z,24.10
2017-09-05T07:37:12.258Z,24.20
2017-09-05T07:39:38.472Z,25.40
2017-09-05T07:42:04.630Z,25.80
2017-09-05T07:44:31.129Z,25.70
2017-09-05T07:46:57.474Z,25.00
2017-09-05T07:49:24.786Z,25.00
2017-09-05T07:51:51.267Z,25.00
2017-09-05T07:54:17.603Z,25.40
2017-09-05T07:56:43.836Z,25.60
2017-09-05T07:59:10.426Z,25.40
2017-09-05T08:01:36.564Z,26.10
2017-09-05T08:04:02.850Z,26.50
2017-09-05T08:06:29.457Z,27.10
2017-09-05T08:08:55.659Z,26.50
2017-09-05T08:11:21.911Z,26.50
2017-09-05T08:13:48.447Z,26.70
2017-09-05T08:16:14.657Z,27.00
2017-09-05T08:18:40.798Z,26.70
2017-09-05T08:21:07.228Z,27.00
2017-09-05T08:23:33.362Z,26.10
2017-09-05T08:25:59.562Z,26.20
2017-09-05T08:28:26.225Z,25.40
2017-09-05T08:30:52.521Z,25.70
2017-09-05T08:33:18.712Z,25.00
2017-09-05T08:35:44.897Z,24.80
2017-09-05T08:38:11.035Z,24.60
2017-09-05T08:40:37.241Z,25.00
2017-09-05T08:43:03.620Z,25.30
2017-09-05T08:45:29.810Z,25.90
2017-09-05T08:47:56.035Z,26.60
2017-09-05T08:50:22.304Z,26.50
2017-09-05T08:52:48.463Z,27.20
2017-09-05T08:55:14.612Z,27.40
2017-09-05T08:57:40.868Z,27.10
2017-09-05T09:00:07.132Z,28.00
2017-09-05T09:02:33.322Z,27.90
2017-09-05T09:04:59.486Z,27.70
2017-09-05T09:07:25.636Z,27.70
2017-09-05T09:09:51.776Z,27.60
2017-09-05T09:12:18.470Z,27.60
2017-09-05T09:14:44.626Z,27.40
2017-09-05T09:17:10.835Z,28.00
2017-09-05T09:19:37.116Z,28.00
2017-09-05T09:22:03.359Z,28.60
2017-09-05T09:24:29.595Z,28.50
2017-09-05T09:26:55.823Z,28.10
2017-09-05T09:29:21.988Z,28.10
2017-09-05T09:31:48.131Z,28.90
2017-09-05T09:34:14.332Z,28.50
2017-09-05T09:36:40.564Z,28.10
2017-09-05T09:39:06.704Z,28.50
2017-09-05T09:41:32.856Z,28.00
2017-09-05T09:43:59.083Z,27.90
2017-09-05T09:46:25.233Z,27.80
2017-09-05T09:48:51.460Z,27.40
2017-09-05T09:51:17.718Z,27.20
2017-09-05T09:53:43.905Z,27.30
2017-09-05T09:56:10.128Z,27.00
2017-09-05T09:58:36.362Z,27.00
2017-09-05T10:01:02.540Z,27.50
2017-09-05T10:03:28.672Z,28.60
2017-09-05T10:05:54.790Z,29.20
2017-09-05T10:08:20.961Z,30.10
2017-09-05T10:10:47.215Z,29.10
2017-09-05T10:13:13.420Z,29.30
2017-09-05T10:15:39.702Z,29.60
2017-09-05T10:18:05.891Z,28.90
2017-09-05T10:20:32.016Z,28.40
2017-09-05T10:22:58.197Z,28.70
2017-09-05T10:25:24.370Z,28.50
2017-09-05T10:27:50.546Z,28.70
2017-09-05T10:30:16.676Z,28.20
2017-09-05T10:32:42.838Z,28.80
2017-09-05T10:35:09.040Z,29.70
2017-09-05T10:37:35.193Z,29.80
2017-09-05T10:40:01.428Z,30.00
2017-09-05T10:42:27.557Z,29.90
2017-09-05T10:44:53.737Z,29.20
2017-09-05T10:47:19.975Z,28.90
2017-09-05T10:49:46.096Z,29.50
2017-09-05T10:52:12.678Z,29.60
2017-09-05T10:54:38.887Z,28.30
2017-09-05T10:57:05.181Z,28.10
2017-09-05T10:59:31.376Z,28.20
2017-09-05T11:01:57.895Z,28.10
2017-09-05T11:04:24.158Z,28.90
2017-09-05T11:06:50.599Z,28.80
2017-09-05T11:09:17.088Z,28.80
2017-09-05T11:11:44.325Z,28.00
2017-09-05T11:14:10.654Z,29.30
2017-09-05T11:16:36.986Z,28.00
2017-09-05T11:19:04.190Z,27.50
2017-09-05T11:21:30.353Z,27.60
2017-09-05T11:23:56.621Z,28.00
2017-09-05T11:26:22.847Z,27.70
2017-09-05T11:28:49.363Z,28.80
2017-09-05T11:31:15.578Z,28.30
2017-09-05T11:33:42.783Z,27.60
2017-09-05T11:36:09.000Z,28.60
2017-09-05T11:38:36.091Z,28.90
2017-09-05T11:41:02.308Z,29.20
2017-09-05T11:43:28.436Z,28.60
2017-09-05T11:45:54.724Z,28.50
2017-09-05T11:48:20.901Z,29.00
2017-09-05T11:50:47.027Z,29.90
2017-09-05T11:53:13.191Z,30.30
2017-09-05T11:55:39.417Z,30.20
2017-09-05T11:58:05.537Z,29.70
2017-09-05T12:00:31.682Z,30.00
2017-09-05T12:02:57.932Z,29.50
2017-09-05T12:05:24.089Z,29.10
2017-09-05T12:07:50.240Z,29.30
2017-09-05T12:10:16.450Z,29.10
2017-09-05T12:12:42.591Z,28.70
2017-09-05T12:15:08.801Z,28.90
2017-09-05T12:17:34.997Z,29.10
2017-09-05T12:20:01.159Z,29.30
2017-09-05T12:22:27.316Z,29.10
2017-09-05T12:24:53.522Z,29.80
2017-09-05T12:27:19.695Z,30.60
2017-09-05T12:29:45.951Z,31.00
2017-09-05T12:32:12.090Z,31.00
2017-09-05T12:34:38.310Z,30.20
2017-09-05T12:37:04.691Z,30.60
2017-09-05T12:39:31.038Z,30.50
2017-09-05T12:41:58.380Z,29.10
2017-09-05T12:44:24.896Z,29.50
2017-09-05T12:46:51.245Z,28.90
2017-09-05T12:49:17.530Z,28.60
2017-09-05T12:51:44.222Z,29.70
2017-09-05T12:54:10.712Z,29.90
2017-09-05T12:56:36.939Z,29.50
2017-09-05T12:59:03.301Z,29.80
2017-09-05T13:01:29.582Z,29.50
2017-09-05T13:03:55.831Z,29.20
2017-09-05T13:06:22.493Z,29.70
2017-09-05T13:08:48.906Z,30.40
2017-09-05T13:11:16.115Z,30.60
2017-09-05T13:13:43.684Z,30.80
2017-09-05T13:16:10.931Z,30.50
2017-09-05T13:18:37.526Z,30.90
2017-09-05T13:21:03.842Z,30.00
2017-09-05T13:23:30.027Z,30.00
2017-09-05T13:25:56.389Z,29.80
2017-09-05T13:28:23.065Z,29.00
2017-09-05T13:30:49.211Z,29.10
2017-09-05T13:33:16.593Z,28.80
2017-09-05T13:35:42.823Z,28.60
2017-09-05T13:38:09.087Z,29.00
2017-09-05T13:40:35.447Z,28.80
2017-09-05T13:43:01.607Z,28.80
2017-09-05T13:45:27.794Z,28.70
2017-09-05T13:47:54.036Z,29.00
2017-09-05T13:50:20.193Z,29.00
2017-09-05T13:52:46.424Z,28.60
2017-09-05T13:55:12.593Z,28.10
2017-09-05T13:57:38.781Z,27.60
2017-09-05T14:00:05.059Z,28.00
2017-09-05T14:02:31.268Z,28.50
2017-09-05T14:04:57.498Z,28.10
2017-09-05T14:07:23.718Z,27.80
2017-09-05T14:09:50.063Z,27.60
2017-09-05T14:12:16.292Z,27.40
2017-09-05T14:14:42.479Z,27.60
2017-09-05T14:17:08.690Z,27.50
2017-09-05T14:19:34.857Z,27.20
2017-09-05T14:22:01.097Z,27.50
2017-09-05T14:24:27.425Z,27.30
2017-09-05T14:26:53.564Z,27.60
2017-09-05T14:29:19.782Z,27.70
2017-09-05T14:31:46.172Z,27.80
2017-09-05T14:34:12.337Z,27.60
2017-09-05T14:36:38.576Z,28.00
2017-09-05T14:39:04.927Z,28.40
2017-09-05T14:41:31.106Z,28.10
2017-09-05T14:43:57.280Z,27.10
2017-09-05T14:46:23.503Z,27.10
2017-09-05T14:48:49.707Z,27.00
2017-09-05T14:51:16.028Z,26.80
2017-09-05T14:53:42.207Z,26.60
2017-09-05T14:56:08.378Z,26.50
2017-09-05T14:58:34.610Z,26.10
2017-09-05T15:01:00.910Z,25.70
2017-09-05T15:03:27.138Z,25.50
2017-09-05T15:05:53.407Z,25.30
2017-09-05T15:08:20.250Z,25.00
2017-09-05T15:10:46.588Z,25.00
2017-09-05T15:13:13.947Z,24.80
2017-09-05T15:15:40.171Z,24.50
2017-09-05T15:18:07.325Z,24.50
2017-09-05T15:20:40.810Z,24.10
2017-09-05T15:23:08.137Z,23.90
2017-09-05T15:25:34.347Z,23.90
2017-09-05T15:28:00.632Z,23.70
2017-09-05T15:30:26.926Z,23.70
2017-09-05T15:32:53.183Z,23.80
2017-09-05T15:35:25.513Z,23.70
2017-09-05T15:37:57.870Z,23.50
2017-09-05T15:40:30.197Z,23.60
2017-09-05T15:43:02.646Z,23.50
2017-09-05T15:45:34.835Z,23.30
2017-09-05T15:48:07.117Z,23.10
2017-09-05T15:50:39.313Z,22.90
2017-09-05T15:53:11.505Z,22.90
2017-09-05T15:55:43.870Z,23.00
2017-09-05T15:58:16.018Z,23.00
2017-09-05T16:00:48.503Z,22.90
2017-09-05T16:03:20.804Z,22.70
2017-09-05T16:05:53.213Z,22.70
2017-09-05T16:08:25.441Z,22.60
2017-09-05T16:10:57.928Z,22.40
2017-09-05T16:13:30.393Z,22.50
2017-09-05T16:16:02.761Z,22.40
2017-09-05T16:18:34.989Z,22.30
2017-09-05T16:21:07.373Z,22.10
2017-09-05T16:23:39.633Z,22.00
2017-09-05T16:26:11.868Z,21.90
2017-09-05T16:28:44.084Z,21.80
2017-09-05T16:31:16.525Z,21.80
2017-09-05T16:33:48.971Z,21.70
2017-09-05T16:36:21.306Z,21.60
2017-09-05T16:38:53.631Z,21.50
2017-09-05T16:41:25.866Z,21.40
2017-09-05T16:43:58.259Z,21.40
2017-09-05T16:46:30.746Z,21.30
2017-09-05T16:49:02.956Z,21.30
2017-09-05T16:51:35.354Z,21.20
2017-09-05T16:54:08.362Z,21.10
2017-09-05T16:56:40.612Z,21.10
2017-09-05T16:59:13.139Z,21.00
2017-09-05T17:01:45.594Z,21.00
2017-09-05T17:04:18.073Z,20.90
2017-09-05T17:06:50.564Z,20.80
2017-09-05T17:09:22.690Z,20.80
2017-09-05T17:11:54.999Z,20.70
2017-09-05T17:14:27.434Z,20.50
2017-09-05T17:16:59.958Z,20.50
2017-09-05T17:19:32.188Z,20.50
2017-09-05T17:22:04.446Z,20.40
2017-09-05T17:24:36.916Z,20.40
2017-09-05T17:27:09.113Z,20.40
2017-09-05T17:29:41.520Z,20.40
2017-09-05T17:32:13.784Z,20.20
2017-09-05T17:34:46.172Z,20.10
2017-09-05T17:37:18.478Z,20.00
2017-09-05T17:39:50.932Z,19.80
2017-09-05T17:42:23.363Z,19.80
2017-09-05T17:44:56.640Z,19.60
2017-09-05T17:47:29.275Z,19.50
2017-09-05T17:50:01.649Z,19.50
2017-09-05T17:52:35.370Z,19.50
2017-09-05T17:55:07.699Z,19.40
2017-09-05T17:57:39.958Z,19.40
2017-09-05T18:00:12.403Z,19.30
2017-09-05T18:02:44.822Z,19.20
2017-09-05T18:05:17.233Z,19.10
2017-09-05T18:07:50.137Z,19.00
2017-09-05T18:10:22.497Z,19.00
2017-09-05T18:12:54.869Z,19.00
2017-09-05T18:15:27.283Z,19.00
2017-09-05T18:18:00.104Z,19.10
2017-09-05T18:20:33.154Z,19.00
2017-09-05T18:23:05.448Z,19.10
2017-09-05T18:25:37.829Z,19.00
2017-09-05T18:28:10.292Z,18.90
2017-09-05T18:30:42.834Z,18.90
2017-09-05T18:33:15.239Z,18.90
2017-09-05T18:35:48.394Z,18.90
2017-09-05T18:38:20.769Z,19.00
2017-09-05T18:40:52.993Z,19.20
2017-09-05T18:43:25.319Z,19.20
2017-09-05T18:45:57.685Z,19.10
2017-09-05T18:48:30.150Z,19.30
2017-09-05T18:51:02.678Z,19.20
2017-09-05T18:53:38.780Z,19.20
2017-09-05T18:56:15.934Z,19.30
2017-09-05T18:58:48.317Z,19.20
2017-09-05T19:01:20.904Z,19.20
2017-09-05T19:03:53.234Z,19.10
2017-09-05T19:06:25.739Z,18.90
2017-09-05T19:08:58.437Z,18.90
2017-09-05T19:11:31.004Z,18.90
2017-09-05T19:14:03.300Z,18.80
2017-09-05T19:16:35.779Z,18.70
2017-09-05T19:19:08.136Z,18.60
2017-09-05T19:21:41.432Z,18.60
2017-09-05T19:24:13.723Z,18.50
2017-09-05T19:26:46.220Z,18.50
2017-09-05T19:29:18.545Z,18.50
2017-09-05T19:31:51.070Z,18.50
2017-09-05T19:34:23.754Z,18.50
2017-09-05T19:36:56.033Z,18.40
2017-09-05T19:39:28.326Z,18.40
2017-09-05T19:42:00.766Z,18.40
2017-09-05T19:44:33.114Z,18.30
2017-09-05T19:47:05.470Z,18.30
2017-09-05T19:49:38.363Z,18.30
2017-09-05T19:52:10.996Z,18.20
2017-09-05T19:54:43.321Z,18.30
2017-09-05T19:57:15.933Z,18.50
2017-09-05T19:59:48.267Z,18.60
2017-09-05T20:02:20.794Z,18.60
2017-09-05T20:04:53.529Z,18.60
2017-09-05T20:07:26.888Z,18.60
2017-09-05T20:09:59.356Z,18.70
2017-09-05T20:12:31.830Z,18.80
2017-09-05T20:15:04.291Z,18.80
2017-09-05T20:17:36.819Z,18.80
2017-09-05T20:20:09.894Z,18.70
2017-09-05T20:22:42.560Z,18.70
2017-09-05T20:25:14.893Z,18.70
2017-09-05T20:27:47.581Z,18.70
2017-09-05T20:30:22.136Z,18.60
2017-09-05T20:32:54.508Z,18.60
2017-09-05T20:35:26.734Z,18.60
2017-09-05T20:37:59.041Z,18.50
2017-09-05T20:40:31.527Z,18.50
2017-09-05T20:43:04.275Z,18.50
2017-09-05T20:45:36.641Z,18.50
2017-09-05T20:48:09.351Z,18.40
2017-09-05T20:50:41.766Z,18.30
2017-09-05T20:53:14.715Z,18.30
2017-09-05T20:55:46.946Z,18.30
2017-09-05T20:58:19.565Z,18.20
2017-09-05T21:00:51.885Z,18.30
2017-09-05T21:03:24.731Z,18.20
2017-09-05T21:05:56.991Z,18.30
2017-09-05T21:08:29.432Z,18.30
2017-09-05T21:11:01.586Z,18.30
2017-09-05T21:13:34.423Z,18.30
2017-09-05T21:16:06.751Z,18.30
2017-09-05T21:18:39.696Z,18.30
2017-09-05T21:21:12.370Z,18.30
2017-09-05T21:23:45.475Z,18.20
2017-09-05T21:26:17.978Z,18.20
2017-09-05T21:28:50.706Z,18.20
2017-09-05T21:31:22.983Z,18.10
2017-09-05T21:33:55.704Z,18.10
2017-09-05T21:36:28.240Z,18.00
2017-09-05T21:39:00.809Z,18.00
2017-09-05T21:41:33.258Z,18.00
2017-09-05T21:44:05.816Z,17.90
2017-09-05T21:46:38.074Z,17.90
2017-09-05T21:49:10.725Z,17.90
2017-09-05T21:51:42.975Z,17.80
2017-09-05T21:54:15.429Z,17.70
2017-09-05T21:56:47.764Z,17.60
2017-09-05T21:59:20.514Z,17.60
2017-09-05T22:01:52.713Z,17.50
2017-09-05T22:04:26.586Z,17.50
2017-09-05T22:06:58.886Z,17.40
2017-09-05T22:09:31.429Z,17.40
2017-09-05T22:12:03.729Z,17.30
2017-09-05T22:14:42.518Z,17.20
2017-09-05T22:17:18.613Z,17.10
2017-09-05T22:19:57.525Z,17.10
2017-09-05T22:22:43.039Z,17.10
2017-09-05T22:25:21.702Z,17.00
2017-09-05T22:28:00.072Z,16.90
2017-09-05T22:30:32.575Z,16.90
2017-09-05T22:33:04.780Z,16.90
2017-09-05T22:35:37.418Z,16.90
2017-09-05T22:38:09.628Z,16.90
2017-09-05T22:40:42.368Z,16.90
2017-09-05T22:43:14.754Z,16.80
2017-09-05T22:45:54.204Z,16.80
2017-09-05T22:48:26.514Z,16.70
2017-09-05T22:50:59.275Z,16.60
2017-09-05T22:53:31.566Z,16.50
2017-09-05T22:56:04.196Z,16.50
2017-09-05T22:58:36.548Z,16.50
2017-09-05T23:01:09.300Z,16.40
2017-09-05T23:03:41.665Z,16.40
2017-09-05T23:06:14.386Z,16.40
2017-09-05T23:08:46.942Z,16.40
2017-09-05T23:11:19.488Z,16.40
2017-09-05T23:13:51.924Z,16.30
2017-09-05T23:16:24.498Z,16.30
2017-09-05T23:18:56.766Z,16.30
2017-09-05T23:21:29.355Z,16.40
2017-09-05T23:24:01.668Z,16.40
2017-09-05T23:26:34.609Z,16.40
2017-09-05T23:29:06.819Z,16.40
2017-09-05T23:31:39.614Z,16.30
2017-09-05T23:34:11.820Z,16.30
2017-09-05T23:36:44.493Z,16.30
2017-09-05T23:39:16.609Z,16.20
2017-09-05T23:41:49.272Z,16.20
2017-09-05T23:44:21.726Z,16.20
2017-09-05T23:46:54.731Z,16.20
2017-09-05T23:49:27.017Z,16.20
2017-09-05T23:52:00.578Z,16.10
2017-09-05T23:54:32.725Z,16.10
2017-09-05T23:57:05.466Z,16.10
2017-09-05T23:59:37.907Z,16.10
